Terminal Aerodrome Forecast
Issued by NWS

Home | Current Version | Previous Version | Text Only | Print | Product List | Glossary On
Versions: 1 2 3 4 5 6 7 8 9 10 11 12 13 14 15 16 17 18 19 20 21 22 23 24 25 26 27
000
FTUS43 KDTX 030137 AAA
TAFPTK
TAF AMD
KPTK 030137Z 0302/0324 05015KT P6SM SCT050 BKN150
      TEMPO 0302/0304 2SM TSRA BKN035CB OVC070
     FM030400 19008KT P6SM -SHRA BKN045
     FM030600 25010KT 6SM BR BKN035
     FM031100 29012KT P6SM SCT050=

USA.gov is the U.S. government's official web portal to all federal, state and local government web resources and services.